Time;durP1;ratioP1;P1;durP2;ratioP2;P2;SDS_P1;SDS_P2;PMS_P1;PMS_P2;Temp;Humidity;BMP_temperature;BMP_pressure;BME280_temperature;BME280_humidity;BME280_pressure;Samples;Min_cycle;Max_cycle;Signal;HPM_P1;HPM_P2
2021/12/24 00:01:54;;;;;;;5.53;3.00;;;;;;;;;;4954562;29;20106;-67
2021/12/24 00:04:22;;;;;;;4.00;3.00;;;;;;;;;;4955983;28;20051;-66
2021/12/24 00:06:49;;;;;;;5.95;2.65;;;;;;;;;;4953593;29;20054;-67
2021/12/24 00:09:24;;;;;;;4.78;2.80;;;;;;;;;;4955730;28;20051;-68
2021/12/24 00:11:57;;;;;;;5.13;2.92;;;;;;;;;;4953910;29;20079;-67
2021/12/24 00:14:25;;;;;;;4.15;2.72;;;;;;;;;;4955643;28;20055;-67
2021/12/24 00:16:55;;;;;;;4.60;2.78;;;;;;;;;;4955982;28;20047;-69
2021/12/24 00:19:40;;;;;;;7.15;2.80;;;;;;;;;;4955626;28;20744;-67
2021/12/24 00:35:47;;;;;;;7.68;3.90;;;;;;;;;;4954220;29;20507;-68
2021/12/24 00:38:13;;;;;;;4.18;2.83;;;;;;;;;;4955452;28;20051;-66
2021/12/24 00:40:45;;;;;;;5.03;2.83;;;;;;;;;;4955599;28;20110;-66
2021/12/24 00:43:13;;;;;;;3.60;2.78;;;;;;;;;;4953130;28;20235;-66
2021/12/24 00:45:42;;;;;;;3.22;2.70;;;;;;;;;;4955440;28;20050;-67
2021/12/24 00:48:12;;;;;;;3.70;2.58;;;;;;;;;;4955593;28;20080;-67
2021/12/24 00:51:07;;;;;;;4.97;2.83;;;;;;;;;;4955294;28;20055;-67
2021/12/24 00:56:08;;;;;;;3.57;2.73;;;;;;;;;;4957392;28;20094;-68
2021/12/24 00:58:35;;;;;;;6.05;3.05;;;;;;;;;;4957482;28;20051;-67
2021/12/24 01:01:03;;;;;;;4.25;2.83;;;;;;;;;;4957523;28;20109;-68
2021/12/24 01:03:30;;;;;;;4.45;2.78;;;;;;;;;;4957816;28;20051;-68
2021/12/24 01:05:56;;;;;;;3.63;2.50;;;;;;;;;;4957482;28;20043;-68
2021/12/24 01:08:23;;;;;;;5.18;2.67;;;;;;;;;;4956139;29;20134;-68
2021/12/24 01:10:56;;;;;;;3.90;3.10;;;;;;;;;;4957874;28;20047;-68
2021/12/24 01:13:26;;;;;;;5.35;2.55;;;;;;;;;;4957092;28;20054;-68
2021/12/24 01:15:59;;;;;;;4.90;2.90;;;;;;;;;;4958542;28;20047;-68
2021/12/24 01:18:40;;;;;;;;;;;;;;;;;;4959035;28;20051;-70
2021/12/24 01:23:50;;;;;;;4.88;2.95;;;;;;;;;;4958121;28;20055;-68
2021/12/24 01:26:33;;;;;;;6.90;2.85;;;;;;;;;;4958250;28;20121;-69
2021/12/24 01:42:48;;;;;;;7.30;2.72;;;;;;;;;;4955767;28;20110;-69
2021/12/24 01:45:28;;;;;;;4.78;3.00;;;;;;;;;;4986034;28;20106;-68
2021/12/24 01:47:58;;;;;;;6.45;2.45;;;;;;;;;;4954735;28;20130;-69
2021/12/24 01:50:27;;;;;;;3.78;2.53;;;;;;;;;;4954695;28;20051;-68
2021/12/24 01:52:55;;;;;;;4.68;2.38;;;;;;;;;;4953576;29;20051;-67
2021/12/24 01:55:23;;;;;;;4.05;2.90;;;;;;;;;;4953346;29;20051;-67
2021/12/24 01:57:50;;;;;;;4.50;2.63;;;;;;;;;;4953576;29;20122;-67
2021/12/24 02:00:24;;;;;;;5.45;2.60;;;;;;;;;;4954654;28;20051;-67
2021/12/24 02:02:50;;;;;;;3.72;3.03;;;;;;;;;;4954505;28;20058;-67
2021/12/24 02:05:17;;;;;;;4.22;2.55;;;;;;;;;;4954500;28;20047;-68
2021/12/24 02:07:44;;;;;;;4.07;3.13;;;;;;;;;;4954659;28;20106;-68
2021/12/24 02:10:13;;;;;;;5.55;3.25;;;;;;;;;;4954233;28;20102;-68
2021/12/24 02:12:40;;;;;;;3.80;2.50;;;;;;;;;;4953229;29;20059;-69
2021/12/24 02:15:12;;;;;;;6.10;2.63;;;;;;;;;;4954327;28;20047;-67
2021/12/24 02:28:42;;;;;;;4.72;2.67;;;;;;;;;;4954479;28;20063;-69
2021/12/24 02:31:11;;;;;;;4.03;2.58;;;;;;;;;;4954103;28;20047;-67
2021/12/24 02:33:38;;;;;;;4.38;2.63;;;;;;;;;;4953724;28;20062;-67
2021/12/24 02:36:05;;;;;;;4.63;2.33;;;;;;;;;;4953935;28;20054;-67
2021/12/24 02:38:33;;;;;;;3.70;2.63;;;;;;;;;;4953822;28;20126;-69
2021/12/24 02:40:59;;;;;;;4.63;3.63;;;;;;;;;;4954044;28;20106;-67
2021/12/24 02:43:26;;;;;;;5.57;2.60;;;;;;;;;;4953671;28;20102;-68
2021/12/24 02:45:56;;;;;;;3.00;2.40;;;;;;;;;;4953288;28;20103;-68
2021/12/24 02:56:30;;;;;;;3.65;2.45;;;;;;;;;;4953716;28;20094;-67
2021/12/24 02:58:59;;;;;;;3.33;2.55;;;;;;;;;;4953802;28;20102;-68
2021/12/24 03:01:28;;;;;;;3.42;2.10;;;;;;;;;;4953787;28;20050;-67
2021/12/24 03:03:56;;;;;;;3.38;2.60;;;;;;;;;;4953531;28;20114;-67
2021/12/24 03:06:28;;;;;;;5.18;3.17;;;;;;;;;;4953686;28;20146;-67
2021/12/24 03:08:55;;;;;;;4.27;2.77;;;;;;;;;;4953723;28;20407;-67
2021/12/24 03:11:22;;;;;;;3.55;2.22;;;;;;;;;;4953631;28;20047;-67
2021/12/24 03:13:49;;;;;;;4.00;2.50;;;;;;;;;;4953342;28;20507;-68
2021/12/24 03:16:16;;;;;;;3.20;2.67;;;;;;;;;;4952263;29;20051;-67
2021/12/24 03:18:44;;;;;;;7.03;2.60;;;;;;;;;;4952332;29;20059;-69
2021/12/24 03:21:19;;;;;;;4.78;2.58;;;;;;;;;;4953538;28;20130;-68
2021/12/24 03:26:35;;;;;;;4.50;2.42;;;;;;;;;;4953458;28;20491;-67
2021/12/24 03:29:08;;;;;;;3.28;2.40;;;;;;;;;;4953427;28;20055;-67
2021/12/24 03:31:36;;;;;;;5.68;2.20;;;;;;;;;;4938084;29;20055;-67
2021/12/24 03:34:15;;;;;;;7.43;2.45;;;;;;;;;;4953199;28;20051;-67
2021/12/24 03:36:42;;;;;;;6.85;2.47;;;;;;;;;;4953465;28;20047;-68
2021/12/24 03:39:09;;;;;;;3.42;2.58;;;;;;;;;;4953355;28;20077;-67
2021/12/24 03:41:36;;;;;;;4.80;3.53;;;;;;;;;;4953216;28;20102;-68
2021/12/24 03:44:02;;;;;;;3.55;2.05;;;;;;;;;;4953179;28;20087;-67
2021/12/24 03:46:32;;;;;;;2.95;2.25;;;;;;;;;;4953271;28;20043;-67
2021/12/24 03:49:04;;;;;;;3.03;2.00;;;;;;;;;;4952217;28;20055;-67
2021/12/24 03:56:46;;;;;;;4.45;1.92;;;;;;;;;;4954615;28;20051;-67
2021/12/24 03:59:13;;;;;;;3.20;2.20;;;;;;;;;;4957324;28;20055;-68
2021/12/24 04:01:40;;;;;;;3.53;2.33;;;;;;;;;;4956652;28;20051;-67
2021/12/24 04:04:08;;;;;;;2.30;2.00;;;;;;;;;;4956450;28;20055;-68
2021/12/24 04:06:35;;;;;;;2.70;1.80;;;;;;;;;;4955185;28;20047;-67
2021/12/24 04:09:04;;;;;;;5.10;2.15;;;;;;;;;;4956653;28;20122;-67
2021/12/24 04:11:31;;;;;;;3.65;1.98;;;;;;;;;;4956280;28;20102;-69
2021/12/24 04:13:57;;;;;;;4.25;2.08;;;;;;;;;;4956415;28;20056;-68
2021/12/24 04:16:24;;;;;;;3.65;2.28;;;;;;;;;;4956349;28;20455;-68
2021/12/24 04:26:48;;;;;;;4.75;2.30;;;;;;;;;;4955316;29;20073;-68
2021/12/24 04:29:14;;;;;;;3.92;2.70;;;;;;;;;;4956218;28;20047;-68
2021/12/24 04:31:45;;;;;;;3.72;2.53;;;;;;;;;;4956246;28;20126;-68
2021/12/24 04:34:13;;;;;;;5.60;2.30;;;;;;;;;;4956078;28;20102;-68
2021/12/24 04:51:08;;;;;;;2.60;2.00;;;;;;;;;;4936635;29;20051;-67
2021/12/24 04:51:11;;;;;;;2.90;2.60;;;;;;;;;;4949746;29;20486;-67
2021/12/24 05:04:30;;;;;;;3.30;2.50;;;;;;;;;;4955361;28;20055;-67
2021/12/24 05:07:06;;;;;;;2.45;2.15;;;;;;;;;;4955548;28;20075;-67
2021/12/24 05:09:33;;;;;;;3.72;2.25;;;;;;;;;;4955157;28;20118;-67
2021/12/24 05:11:59;;;;;;;3.47;2.13;;;;;;;;;;4956081;28;20055;-67
2021/12/24 05:14:30;;;;;;;3.92;2.15;;;;;;;;;;4955219;28;20184;-67
2021/12/24 05:17:18;;;;;;;2.72;1.90;;;;;;;;;;4955455;28;20054;-67
2021/12/24 05:22:30;;;;;;;4.72;2.10;;;;;;;;;;4955481;28;20055;-67
2021/12/24 05:24:57;;;;;;;3.03;2.33;;;;;;;;;;4955193;28;20121;-67
2021/12/24 05:27:24;;;;;;;2.42;1.88;;;;;;;;;;4955085;28;20495;-67
2021/12/24 05:29:52;;;;;;;3.65;1.95;;;;;;;;;;4953998;28;20062;-67
2021/12/24 05:32:19;;;;;;;4.07;2.13;;;;;;;;;;4954753;28;20051;-67
2021/12/24 05:34:46;;;;;;;3.22;1.88;;;;;;;;;;4985727;28;20051;-67
2021/12/24 05:37:12;;;;;;;3.33;2.60;;;;;;;;;;4954939;28;20126;-67
2021/12/24 05:39:40;;;;;;;4.35;2.33;;;;;;;;;;4954898;28;20462;-67
2021/12/24 05:42:06;;;;;;;3.28;1.92;;;;;;;;;;4954887;28;20083;-67
2021/12/24 05:44:33;;;;;;;3.22;2.55;;;;;;;;;;4985321;28;20051;-67
2021/12/24 05:47:00;;;;;;;3.95;2.50;;;;;;;;;;4946423;28;20105;-67
2021/12/24 05:49:27;;;;;;;2.95;2.25;;;;;;;;;;4954459;28;20054;-67
2021/12/24 05:51:53;;;;;;;3.63;2.67;;;;;;;;;;4954804;28;20098;-68
2021/12/24 05:54:22;;;;;;;3.42;2.13;;;;;;;;;;4954423;28;20051;-68
2021/12/24 05:56:48;;;;;;;2.85;2.38;;;;;;;;;;4954726;28;20098;-68
2021/12/24 05:59:15;;;;;;;3.28;2.33;;;;;;;;;;4954469;28;20110;-67
2021/12/24 06:01:42;;;;;;;2.97;2.30;;;;;;;;;;4954486;28;20059;-68
2021/12/24 06:04:09;;;;;;;2.47;1.90;;;;;;;;;;4954386;28;20058;-67
2021/12/24 06:06:36;;;;;;;3.55;1.85;;;;;;;;;;4954288;28;20147;-67
2021/12/24 06:09:03;;;;;;;3.58;1.92;;;;;;;;;;4954350;28;20079;-67
2021/12/24 06:11:29;;;;;;;4.65;2.25;;;;;;;;;;4937256;29;20047;-67
2021/12/24 06:13:56;;;;;;;2.40;2.20;;;;;;;;;;4954056;28;20491;-67
2021/12/24 06:16:23;;;;;;;4.72;2.67;;;;;;;;;;4954133;28;20098;-67
2021/12/24 06:18:50;;;;;;;3.80;2.35;;;;;;;;;;4954276;28;20079;-69
2021/12/24 06:21:16;;;;;;;3.45;2.40;;;;;;;;;;4953370;28;20462;-68
2021/12/24 06:23:44;;;;;;;5.13;2.15;;;;;;;;;;4953782;28;20055;-68
2021/12/24 06:26:12;;;;;;;3.97;2.63;;;;;;;;;;4954000;28;20048;-68
2021/12/24 06:28:39;;;;;;;2.47;2.03;;;;;;;;;;4953889;28;20055;-68
2021/12/24 06:31:07;;;;;;;3.60;2.33;;;;;;;;;;4954150;28;20051;-67
2021/12/24 06:33:34;;;;;;;4.68;2.40;;;;;;;;;;4953687;28;20062;-67
2021/12/24 06:36:01;;;;;;;4.93;2.40;;;;;;;;;;4953964;29;20502;-68
2021/12/24 06:38:27;;;;;;;5.60;2.40;;;;;;;;;;4953892;29;20051;-68
2021/12/24 06:40:54;;;;;;;3.38;2.03;;;;;;;;;;4953846;28;20051;-68
2021/12/24 06:43:21;;;;;;;4.10;2.67;;;;;;;;;;4953592;28;20055;-68
2021/12/24 06:45:49;;;;;;;3.42;2.53;;;;;;;;;;4953917;28;20106;-68
2021/12/24 06:48:17;;;;;;;5.55;2.30;;;;;;;;;;4953752;28;20054;-68
2021/12/24 06:50:44;;;;;;;7.78;3.30;;;;;;;;;;4953798;28;20106;-67
2021/12/24 06:53:10;;;;;;;2.65;2.28;;;;;;;;;;4953768;28;20474;-66
2021/12/24 06:55:37;;;;;;;4.68;2.40;;;;;;;;;;4953659;28;20082;-68
2021/12/24 06:58:04;;;;;;;3.67;2.42;;;;;;;;;;4952436;29;20051;-68
2021/12/24 07:00:31;;;;;;;4.93;2.53;;;;;;;;;;4953633;28;20051;-67
2021/12/24 07:02:57;;;;;;;6.00;2.30;;;;;;;;;;4953760;28;20055;-68
2021/12/24 07:05:24;;;;;;;3.60;2.45;;;;;;;;;;4953491;28;20051;-67
2021/12/24 07:07:51;;;;;;;4.80;2.47;;;;;;;;;;4953628;28;20103;-67
2021/12/24 07:10:17;;;;;;;3.08;2.60;;;;;;;;;;4953749;28;20055;-67
2021/12/24 07:12:44;;;;;;;4.82;2.45;;;;;;;;;;4953424;28;20114;-67
2021/12/24 07:15:11;;;;;;;7.10;2.67;;;;;;;;;;4953634;28;20052;-67
2021/12/24 07:17:37;;;;;;;4.20;2.20;;;;;;;;;;4953383;28;20047;-66
2021/12/24 07:20:04;;;;;;;5.05;2.75;;;;;;;;;;4953375;28;20422;-67
2021/12/24 07:22:31;;;;;;;4.50;2.83;;;;;;;;;;4953299;28;20503;-67
2021/12/24 07:24:57;;;;;;;6.47;3.08;;;;;;;;;;4953395;28;20051;-67
2021/12/24 07:27:24;;;;;;;7.10;4.82;;;;;;;;;;4953269;28;20106;-68
2021/12/24 07:29:51;;;;;;;7.00;3.83;;;;;;;;;;4953638;28;20047;-67
2021/12/24 07:32:17;;;;;;;3.97;3.20;;;;;;;;;;4955763;28;20408;-67
2021/12/24 07:34:44;;;;;;;9.07;3.25;;;;;;;;;;4957120;28;20106;-68
2021/12/24 07:37:10;;;;;;;4.10;3.20;;;;;;;;;;4957085;28;20048;-67
2021/12/24 07:39:37;;;;;;;5.88;3.85;;;;;;;;;;4956961;28;20566;-66
2021/12/24 07:42:04;;;;;;;6.25;3.13;;;;;;;;;;4957094;28;20507;-65
2021/12/24 07:44:34;;;;;;;4.13;2.60;;;;;;;;;;4956759;28;20125;-68
2021/12/24 07:47:03;;;;;;;4.80;3.03;;;;;;;;;;4956955;28;20561;-67
2021/12/24 07:49:32;;;;;;;4.43;3.58;;;;;;;;;;4956862;28;20047;-67
2021/12/24 07:54:31;;;;;;;4.45;2.85;;;;;;;;;;4956898;28;20047;-65
2021/12/24 07:56:59;;;;;;;3.70;2.80;;;;;;;;;;4956814;28;20047;-65
2021/12/24 07:59:37;;;;;;;4.65;3.13;;;;;;;;;;4956694;28;20196;-67
2021/12/24 08:02:10;;;;;;;8.82;3.65;;;;;;;;;;4956734;28;20478;-67
2021/12/24 08:04:38;;;;;;;6.00;3.20;;;;;;;;;;4956356;28;20059;-66
2021/12/24 08:07:05;;;;;;;6.25;3.50;;;;;;;;;;4956717;28;20094;-66
2021/12/24 08:09:31;;;;;;;5.63;2.88;;;;;;;;;;4956607;28;20051;-66
2021/12/24 08:11:58;;;;;;;5.47;3.17;;;;;;;;;;4956631;28;20050;-65
2021/12/24 08:14:24;;;;;;;4.80;2.90;;;;;;;;;;4955821;28;20055;-65
2021/12/24 08:16:51;;;;;;;4.25;2.92;;;;;;;;;;4956510;28;20051;-67
2021/12/24 08:19:18;;;;;;;3.67;2.85;;;;;;;;;;4956442;28;20047;-65
2021/12/24 08:21:45;;;;;;;5.93;2.78;;;;;;;;;;4956359;28;20055;-65
2021/12/24 08:24:12;;;;;;;8.18;2.83;;;;;;;;;;4956010;28;20566;-66
2021/12/24 08:26:39;;;;;;;4.57;3.10;;;;;;;;;;4955737;28;20047;-65
2021/12/24 08:29:05;;;;;;;3.65;3.00;;;;;;;;;;4956204;28;20110;-68
2021/12/24 08:31:34;;;;;;;3.72;2.53;;;;;;;;;;4956161;28;20491;-66
2021/12/24 08:34:02;;;;;;;3.72;2.60;;;;;;;;;;4956144;28;20187;-66
2021/12/24 08:36:29;;;;;;;4.25;2.90;;;;;;;;;;4955876;28;20047;-66
2021/12/24 08:38:56;;;;;;;3.33;2.88;;;;;;;;;;4955997;28;20047;-65
2021/12/24 08:41:23;;;;;;;4.00;2.95;;;;;;;;;;4956021;28;20106;-65
2021/12/24 08:43:50;;;;;;;6.90;2.83;;;;;;;;;;4955066;28;20402;-65
2021/12/24 08:46:16;;;;;;;3.25;2.58;;;;;;;;;;4955991;28;20051;-66
2021/12/24 08:48:43;;;;;;;7.10;2.85;;;;;;;;;;4955916;28;20139;-65
2021/12/24 08:51:11;;;;;;;5.43;3.30;;;;;;;;;;4945927;28;20271;-65
2021/12/24 08:53:39;;;;;;;4.35;2.40;;;;;;;;;;4945604;28;20051;-66
2021/12/24 08:56:06;;;;;;;5.32;2.88;;;;;;;;;;4942348;29;20507;-68
2021/12/24 08:58:32;;;;;;;2.65;2.40;;;;;;;;;;4958697;28;20508;-67
2021/12/24 09:01:00;;;;;;;5.43;3.28;;;;;;;;;;4944842;28;20064;-67
2021/12/24 09:03:26;;;;;;;5.88;2.42;;;;;;;;;;4940986;29;20110;-65
2021/12/24 09:05:54;;;;;;;4.20;2.45;;;;;;;;;;4943839;28;20419;-66
2021/12/24 09:08:21;;;;;;;4.07;2.42;;;;;;;;;;4937136;28;20059;-68
2021/12/24 09:10:48;;;;;;;3.60;2.95;;;;;;;;;;4961665;28;20047;-65
2021/12/24 09:13:15;;;;;;;3.55;2.55;;;;;;;;;;4960749;28;20054;-66
2021/12/24 09:15:41;;;;;;;4.22;2.78;;;;;;;;;;4963917;28;20054;-65
2021/12/24 09:18:09;;;;;;;4.30;2.47;;;;;;;;;;4964758;28;20070;-66
2021/12/24 09:20:40;;;;;;;5.18;2.67;;;;;;;;;;4963921;28;20055;-65
2021/12/24 09:23:07;;;;;;;4.20;2.75;;;;;;;;;;4960129;28;20051;-64
2021/12/24 09:25:34;;;;;;;3.55;2.80;;;;;;;;;;4962719;28;20129;-65
2021/12/24 09:28:01;;;;;;;4.57;2.63;;;;;;;;;;4966052;28;20043;-67
2021/12/24 09:30:28;;;;;;;6.22;2.78;;;;;;;;;;4961829;28;20089;-68
2021/12/24 09:32:55;;;;;;;4.53;3.00;;;;;;;;;;4960841;28;20105;-67
2021/12/24 09:35:22;;;;;;;5.75;2.58;;;;;;;;;;4968813;28;20047;-68
2021/12/24 09:37:49;;;;;;;4.97;2.83;;;;;;;;;;4962986;28;20048;-66
2021/12/24 09:40:16;;;;;;;3.08;2.28;;;;;;;;;;4961029;28;20051;-67
2021/12/24 09:42:43;;;;;;;3.45;2.75;;;;;;;;;;4960727;28;20051;-66
2021/12/24 09:45:10;;;;;;;5.38;3.00;;;;;;;;;;4960273;28;20135;-67
2021/12/24 09:47:37;;;;;;;5.13;2.80;;;;;;;;;;4961466;28;20089;-66
2021/12/24 09:50:06;;;;;;;5.35;3.08;;;;;;;;;;4959511;28;20102;-67
2021/12/24 09:52:33;;;;;;;6.13;3.08;;;;;;;;;;4961044;28;20447;-66
2021/12/24 09:55:26;;;;;;;5.07;2.75;;;;;;;;;;4959528;28;20051;-66
2021/12/24 09:57:53;;;;;;;3.42;2.38;;;;;;;;;;4960512;28;20047;-65
2021/12/24 10:00:21;;;;;;;3.53;2.42;;;;;;;;;;4958699;28;20107;-66
2021/12/24 10:02:51;;;;;;;4.85;2.80;;;;;;;;;;4957434;28;20565;-65
2021/12/24 10:05:36;;;;;;;5.97;3.05;;;;;;;;;;4974610;28;20051;-65
2021/12/24 10:08:06;;;;;;;5.60;3.47;;;;;;;;;;4960769;28;20094;-66
2021/12/24 10:10:35;;;;;;;9.70;4.55;;;;;;;;;;4957918;28;20055;-66
2021/12/24 10:13:29;;;;;;;11.60;5.28;;;;;;;;;;4960385;28;20046;-65
2021/12/24 10:16:07;;;;;;;5.65;3.80;;;;;;;;;;4962581;28;20047;-67
2021/12/24 10:18:45;;;;;;;5.03;3.17;;;;;;;;;;4963626;28;20066;-65
2021/12/24 10:21:20;;;;;;;4.50;3.15;;;;;;;;;;4959604;28;20047;-65
2021/12/24 10:24:04;;;;;;;3.67;2.80;;;;;;;;;;4965135;28;20497;-66
2021/12/24 10:26:36;;;;;;;4.30;2.78;;;;;;;;;;4961777;28;20103;-66
2021/12/24 10:29:10;;;;;;;7.38;3.50;;;;;;;;;;4961350;28;20067;-65
2021/12/24 10:31:53;;;;;;;3.85;2.85;;;;;;;;;;4962491;28;20086;-66
2021/12/24 10:34:21;;;;;;;6.50;2.75;;;;;;;;;;4960547;28;20105;-66
2021/12/24 10:36:54;;;;;;;4.40;2.85;;;;;;;;;;4959537;28;20051;-65
2021/12/24 10:39:28;;;;;;;6.57;2.88;;;;;;;;;;4960794;28;20083;-65
2021/12/24 10:41:56;;;;;;;6.75;3.00;;;;;;;;;;4960281;28;20055;-65
2021/12/24 10:44:28;;;;;;;3.28;2.70;;;;;;;;;;4958254;28;20051;-66
2021/12/24 10:47:12;;;;;;;4.57;3.03;;;;;;;;;;4958595;28;20097;-66
2021/12/24 10:55:00;;;;;;;4.95;2.75;;;;;;;;;;4959178;28;20078;-66
2021/12/24 10:57:33;;;;;;;5.00;2.70;;;;;;;;;;4961751;28;20102;-65
2021/12/24 11:00:07;;;;;;;4.73;2.87;;;;;;;;;;4959122;28;20047;-65
2021/12/24 11:02:35;;;;;;;3.50;2.40;;;;;;;;;;4961027;28;20704;-66
2021/12/24 11:05:04;;;;;;;4.93;3.10;;;;;;;;;;4962969;28;20050;-66
2021/12/24 11:07:31;;;;;;;4.55;3.15;;;;;;;;;;4961146;28;20051;-66
2021/12/24 11:10:09;;;;;;;3.03;2.30;;;;;;;;;;4960570;28;20078;-65
2021/12/24 11:12:37;;;;;;;4.60;2.40;;;;;;;;;;4958827;28;20055;-66
2021/12/24 11:15:17;;;;;;;3.47;2.70;;;;;;;;;;4959470;28;20503;-65
2021/12/24 11:17:44;;;;;;;4.50;2.97;;;;;;;;;;4961404;28;20038;-66
2021/12/24 11:20:11;;;;;;;3.92;3.03;;;;;;;;;;4962119;28;20051;-66
2021/12/24 11:23:13;;;;;;;4.25;3.20;;;;;;;;;;4959825;28;20054;-66
2021/12/24 11:25:45;;;;;;;4.30;2.80;;;;;;;;;;4962340;28;20113;-66
2021/12/24 11:28:12;;;;;;;4.22;2.33;;;;;;;;;;4971677;28;20051;-66
2021/12/24 11:30:42;;;;;;;5.30;2.50;;;;;;;;;;4972666;28;20106;-65
2021/12/24 11:33:16;;;;;;;4.45;2.10;;;;;;;;;;4972440;28;20498;-65
2021/12/24 11:35:47;;;;;;;6.10;2.47;;;;;;;;;;4972635;28;20050;-66
2021/12/24 11:38:36;;;;;;;5.43;2.72;;;;;;;;;;4972501;28;20106;-65
2021/12/24 11:41:05;;;;;;;5.15;2.95;;;;;;;;;;4972773;28;20474;-66
2021/12/24 11:43:37;;;;;;;4.10;2.30;;;;;;;;;;4969798;28;20110;-66
2021/12/24 11:46:06;;;;;;;6.60;3.00;;;;;;;;;;4970773;28;20101;-66
2021/12/24 11:48:33;;;;;;;4.57;2.40;;;;;;;;;;4965307;28;20047;-66
2021/12/24 11:51:05;;;;;;;3.63;2.10;;;;;;;;;;4951207;29;20427;-66
2021/12/24 11:53:33;;;;;;;5.73;2.23;;;;;;;;;;4950010;29;20051;-66
2021/12/24 11:56:05;;;;;;;2.50;1.98;;;;;;;;;;4965451;28;20488;-66
2021/12/24 11:58:32;;;;;;;3.72;2.30;;;;;;;;;;4950956;28;20114;-67
2021/12/24 12:01:04;;;;;;;4.22;2.10;;;;;;;;;;4958384;28;20093;-67
2021/12/24 12:03:32;;;;;;;2.17;1.98;;;;;;;;;;4970239;28;20055;-67
2021/12/24 12:05:59;;;;;;;2.97;2.03;;;;;;;;;;4970277;28;20694;-66
2021/12/24 12:08:26;;;;;;;2.40;2.20;;;;;;;;;;4984751;28;20047;-66
2021/12/24 12:10:59;;;;;;;2.85;1.63;;;;;;;;;;4970352;28;20054;-67
2021/12/24 12:13:37;;;;;;;;;;;;;;;;;;4970633;28;20059;-66
2021/12/24 12:16:05;;;;;;;2.35;1.73;;;;;;;;;;4969588;28;20337;-67
2021/12/24 12:18:42;;;;;;;2.33;1.60;;;;;;;;;;4985981;28;20749;-65
2021/12/24 12:21:11;;;;;;;3.55;1.80;;;;;;;;;;4973844;28;20106;-66
2021/12/24 12:26:41;;;;;;;3.60;2.58;;;;;;;;;;4973749;28;20117;-65
2021/12/24 12:29:29;;;;;;;5.00;3.15;;;;;;;;;;4971996;28;20486;-66
2021/12/24 12:32:01;;;;;;;1.77;1.65;;;;;;;;;;4973607;28;20051;-65
2021/12/24 12:34:38;;;;;;;4.32;1.90;;;;;;;;;;4973100;28;20054;-66
2021/12/24 12:37:19;;;;;;;4.93;3.53;;;;;;;;;;4973808;28;20565;-66
2021/12/24 12:39:57;;;;;;;8.95;4.53;;;;;;;;;;4972896;28;20109;-65
2021/12/24 12:42:55;;;;;;;13.77;7.95;;;;;;;;;;4972764;28;20054;-65
2021/12/24 12:45:22;;;;;;;6.03;2.83;;;;;;;;;;4973389;28;20105;-67
2021/12/24 12:47:54;;;;;;;4.28;2.67;;;;;;;;;;4973059;28;20050;-67
2021/12/24 12:50:20;;;;;;;3.65;1.98;;;;;;;;;;4973401;28;20110;-67
2021/12/24 12:52:47;;;;;;;6.32;3.38;;;;;;;;;;4973292;28;20054;-67
2021/12/24 12:55:34;;;;;;;3.20;1.90;;;;;;;;;;4971914;28;20621;-66
2021/12/24 12:58:21;;;;;;;3.72;1.88;;;;;;;;;;4973214;28;20051;-67
2021/12/24 13:01:12;;;;;;;2.83;1.80;;;;;;;;;;4972939;28;20051;-66
2021/12/24 13:03:57;;;;;;;1.85;1.30;;;;;;;;;;4972930;28;20403;-67
2021/12/24 13:06:36;;;;;;;2.90;1.45;;;;;;;;;;4972845;28;20102;-67
2021/12/24 13:09:04;;;;;;;2.63;1.52;;;;;;;;;;4972971;28;20043;-66
2021/12/24 13:11:42;;;;;;;3.45;1.88;;;;;;;;;;4972871;28;20105;-67
2021/12/24 13:14:10;;;;;;;2.35;1.40;;;;;;;;;;4972451;28;20051;-67
2021/12/24 13:16:46;;;;;;;2.38;1.60;;;;;;;;;;4972453;28;20135;-67
2021/12/24 13:24:49;;;;;;;1.90;1.40;;;;;;;;;;4972197;28;20434;-67
2021/12/24 13:27:17;;;;;;;2.67;1.27;;;;;;;;;;4971798;28;20191;-68
2021/12/24 13:29:44;;;;;;;1.42;0.95;;;;;;;;;;4972051;28;20101;-68
2021/12/24 13:32:11;;;;;;;2.35;0.88;;;;;;;;;;4971116;28;20054;-68
2021/12/24 13:34:40;;;;;;;1.95;0.82;;;;;;;;;;4972087;28;20062;-67
2021/12/24 13:37:12;;;;;;;2.20;0.90;;;;;;;;;;4972334;28;20084;-67
2021/12/24 13:40:09;;;;;;;1.38;0.80;;;;;;;;;;4970929;28;20055;-68
2021/12/24 13:42:47;;;;;;;0.73;0.73;;;;;;;;;;4972205;28;20050;-67
2021/12/24 13:45:14;;;;;;;1.90;0.90;;;;;;;;;;4969704;28;20051;-67
2021/12/24 13:55:38;;;;;;;10.55;5.28;;;;;;;;;;4972271;28;20062;-68
2021/12/24 13:58:14;;;;;;;6.70;2.72;;;;;;;;;;4971973;28;20097;-69
2021/12/24 14:00:50;;;;;;;2.22;1.55;;;;;;;;;;4972200;28;20055;-68
2021/12/24 14:03:22;;;;;;;1.23;0.98;;;;;;;;;;4972062;28;20134;-68
2021/12/24 14:05:50;;;;;;;1.55;0.88;;;;;;;;;;4971662;28;20129;-68
2021/12/24 14:08:19;;;;;;;1.23;0.98;;;;;;;;;;4968853;28;20039;-68
2021/12/24 14:10:48;;;;;;;1.88;1.23;;;;;;;;;;4972163;28;20062;-67
2021/12/24 14:13:26;;;;;;;1.20;1.10;;;;;;;;;;4971566;28;20066;-68
2021/12/24 14:24:12;;;;;;;1.98;1.10;;;;;;;;;;4970544;28;20074;-68
2021/12/24 14:26:56;;;;;;;2.75;1.20;;;;;;;;;;4968312;28;20042;-68
2021/12/24 14:29:29;;;;;;;2.30;1.15;;;;;;;;;;4970818;28;20051;-67
2021/12/24 14:32:07;;;;;;;4.45;2.80;;;;;;;;;;4970576;28;20101;-68
2021/12/24 14:34:44;;;;;;;6.80;3.13;;;;;;;;;;4970915;28;20106;-68
2021/12/24 14:37:27;;;;;;;8.20;6.20;;;;;;;;;;4970867;28;20046;-68
2021/12/24 14:40:02;;;;;;;2.85;2.28;;;;;;;;;;4970747;28;20109;-68
2021/12/24 14:42:36;;;;;;;2.42;1.75;;;;;;;;;;4970308;28;20050;-68
2021/12/24 14:45:26;;;;;;;4.07;1.27;;;;;;;;;;4971096;28;20059;-68
2021/12/24 14:48:06;;;;;;;1.10;0.90;;;;;;;;;;4971037;28;20090;-68
2021/12/24 14:50:36;;;;;;;1.38;1.25;;;;;;;;;;4970675;28;20059;-68
2021/12/24 14:53:08;;;;;;;1.27;1.17;;;;;;;;;;4970516;28;20054;-68
2021/12/24 14:55:46;;;;;;;1.23;1.05;;;;;;;;;;4970802;28;20054;-68
2021/12/24 14:58:16;;;;;;;0.98;0.70;;;;;;;;;;4970887;28;20558;-68
2021/12/24 15:00:47;;;;;;;1.90;1.10;;;;;;;;;;4970910;28;20449;-68
2021/12/24 15:03:16;;;;;;;1.63;1.15;;;;;;;;;;4970571;28;20051;-68
2021/12/24 15:05:47;;;;;;;1.13;1.05;;;;;;;;;;4970273;28;20062;-67
2021/12/24 15:08:18;;;;;;;2.88;1.50;;;;;;;;;;4970817;28;20132;-69
2021/12/24 15:11:23;;;;;;;3.08;1.60;;;;;;;;;;4970978;28;20399;-67
2021/12/24 15:13:52;;;;;;;1.50;1.17;;;;;;;;;;4970648;28;20074;-67
2021/12/24 15:16:21;;;;;;;2.22;1.20;;;;;;;;;;4970628;28;20065;-67
2021/12/24 15:18:50;;;;;;;2.22;1.40;;;;;;;;;;4968735;28;20046;-67
2021/12/24 15:21:17;;;;;;;3.28;1.35;;;;;;;;;;4970685;28;20478;-67
2021/12/24 15:23:45;;;;;;;2.08;1.20;;;;;;;;;;4970552;28;20054;-66
2021/12/24 15:26:12;;;;;;;2.22;1.40;;;;;;;;;;4971086;28;20273;-67
2021/12/24 15:28:43;;;;;;;1.70;1.40;;;;;;;;;;4969369;28;20046;-67
2021/12/24 15:31:11;;;;;;;4.22;2.78;;;;;;;;;;4965028;28;20110;-67
2021/12/24 15:33:38;;;;;;;19.38;10.63;;;;;;;;;;4951137;28;20110;-67
2021/12/24 15:36:06;;;;;;;4.22;3.08;;;;;;;;;;4950237;29;20055;-66
2021/12/24 15:38:32;;;;;;;3.72;2.33;;;;;;;;;;4966138;28;20050;-66
2021/12/24 15:40:59;;;;;;;3.70;2.42;;;;;;;;;;4969564;28;20535;-66
2021/12/24 15:43:26;;;;;;;5.10;2.25;;;;;;;;;;4963091;28;20106;-66
2021/12/24 15:45:53;;;;;;;4.55;1.75;;;;;;;;;;4966906;28;20051;-67
2021/12/24 15:48:21;;;;;;;3.38;2.08;;;;;;;;;;4967932;28;20057;-66
2021/12/24 15:50:47;;;;;;;3.00;2.00;;;;;;;;;;4969943;28;20050;-66
2021/12/24 15:53:14;;;;;;;3.92;2.05;;;;;;;;;;4971486;28;20086;-67
2021/12/24 15:55:41;;;;;;;3.72;1.90;;;;;;;;;;4973638;28;20051;-67
2021/12/24 15:58:08;;;;;;;7.63;3.45;;;;;;;;;;4973326;28;20050;-66
2021/12/24 16:00:39;;;;;;;6.97;3.28;;;;;;;;;;4974125;28;20055;-67
2021/12/24 16:03:06;;;;;;;5.25;2.70;;;;;;;;;;4973992;28;20514;-67
2021/12/24 16:05:33;;;;;;;3.85;2.45;;;;;;;;;;4973536;28;20548;-67
2021/12/24 16:08:00;;;;;;;3.88;2.40;;;;;;;;;;4973841;28;20101;-67
2021/12/24 16:10:27;;;;;;;2.40;1.80;;;;;;;;;;4973169;28;20109;-67
2021/12/24 16:12:53;;;;;;;4.57;2.72;;;;;;;;;;4973803;28;20058;-67
2021/12/24 16:15:20;;;;;;;5.43;3.22;;;;;;;;;;4973612;28;20082;-67
2021/12/24 16:17:46;;;;;;;7.93;3.60;;;;;;;;;;4973855;28;20050;-67
2021/12/24 16:20:14;;;;;;;6.30;3.28;;;;;;;;;;4973502;28;20105;-67
2021/12/24 16:22:40;;;;;;;7.53;4.22;;;;;;;;;;4973279;28;20110;-67
2021/12/24 16:25:08;;;;;;;7.85;4.00;;;;;;;;;;4973598;28;20051;-67
2021/12/24 16:27:35;;;;;;;7.40;3.95;;;;;;;;;;4973504;28;20055;-67
2021/12/24 16:30:06;;;;;;;4.85;2.95;;;;;;;;;;4973297;28;20559;-67
2021/12/24 16:32:33;;;;;;;5.97;3.90;;;;;;;;;;4973297;28;20054;-67
2021/12/24 16:35:06;;;;;;;5.75;3.80;;;;;;;;;;4973326;28;20105;-67
2021/12/24 16:37:34;;;;;;;12.32;5.22;;;;;;;;;;4972938;28;20105;-67
2021/12/24 16:40:03;;;;;;;10.73;6.65;;;;;;;;;;4973254;28;20097;-66
2021/12/24 16:42:30;;;;;;;10.40;6.88;;;;;;;;;;4973254;28;20105;-67
2021/12/24 16:44:57;;;;;;;12.18;8.07;;;;;;;;;;4973322;28;20058;-67
2021/12/24 16:47:24;;;;;;;11.80;7.13;;;;;;;;;;4973221;28;20074;-68
2021/12/24 16:49:50;;;;;;;8.25;5.55;;;;;;;;;;4972871;28;20418;-67
2021/12/24 16:52:18;;;;;;;10.07;6.53;;;;;;;;;;4973133;28;20482;-67
2021/12/24 16:54:45;;;;;;;10.10;6.20;;;;;;;;;;4971502;28;20547;-66
2021/12/24 16:57:11;;;;;;;10.07;6.28;;;;;;;;;;4973281;28;20549;-66
2021/12/24 16:59:40;;;;;;;12.45;7.72;;;;;;;;;;4972440;28;20058;-68
2021/12/24 17:02:11;;;;;;;11.43;6.63;;;;;;;;;;4972639;28;20055;-68
2021/12/24 17:04:37;;;;;;;10.00;6.43;;;;;;;;;;4971860;28;20085;-66
2021/12/24 17:07:05;;;;;;;10.52;6.65;;;;;;;;;;4973187;28;20060;-68